Time;durP1;ratioP1;P1;durP2;ratioP2;P2;SDS_P1;SDS_P2;PMS_P1;PMS_P2;Temp;Humidity;BMP_temperature;BMP_pressure;BME280_temperature;BME280_humidity;BME280_pressure;Samples;Min_cycle;Max_cycle;Signal;HPM_P1;HPM_P2
2022/07/22 00:00:31;;;;;;;9.70;5.30;;;;;;;23.10;93.82;100935.50;5009965;28;20494;-64
2022/07/22 00:03:04;;;;;;;9.85;4.97;;;;;;;22.97;94.36;100945.66;5012528;28;20693;-65
2022/07/22 00:05:35;;;;;;;8.93;4.47;;;;;;;23.00;94.46;100947.53;5011486;28;20053;-65
2022/07/22 00:08:05;;;;;;;10.85;5.50;;;;;;;22.96;94.73;100943.31;5011376;28;20036;-64
2022/07/22 00:10:34;;;;;;;10.88;5.57;;;;;;;23.05;94.56;100938.75;5013640;28;20080;-64
2022/07/22 00:12:59;;;;;;;12.77;6.28;;;;;;;23.18;92.73;100945.09;5009023;28;20781;-66
2022/07/22 00:15:28;;;;;;;10.52;5.30;;;;;;;23.08;93.83;100937.13;5018654;28;20112;-65
2022/07/22 00:18:01;;;;;;;11.40;6.15;;;;;;;23.16;93.63;100944.75;5012988;28;20252;-65
2022/07/22 00:20:29;;;;;;;11.98;5.18;;;;;;;23.10;94.14;100951.22;5017882;28;20076;-65
2022/07/22 00:22:55;;;;;;;11.07;5.35;;;;;;;22.94;95.42;100943.75;5025164;28;20069;-65
2022/07/22 00:25:34;;;;;;;12.65;5.53;;;;;;;22.94;95.60;100942.97;5018069;28;20047;-65
2022/07/22 00:27:59;;;;;;;11.98;5.53;;;;;;;22.89;96.27;100944.28;5019197;28;20038;-65
2022/07/22 00:30:29;;;;;;;9.77;5.28;;;;;;;22.88;96.66;100948.22;5021514;28;20026;-65
2022/07/22 00:32:57;;;;;;;11.80;6.45;;;;;;;22.93;96.33;100942.22;5014457;28;20053;-65
2022/07/22 00:35:28;;;;;;;11.60;5.93;;;;;;;22.93;97.02;100941.44;5024873;28;20022;-65
2022/07/22 00:37:53;;;;;;;9.38;4.97;;;;;;;22.88;97.73;100945.47;5011959;28;20037;-65
2022/07/22 00:40:21;;;;;;;13.45;6.38;;;;;;;22.91;97.83;100936.41;5010670;28;20112;-65
2022/07/22 00:42:50;;;;;;;12.18;6.30;;;;;;;22.97;97.71;100940.16;5008941;28;20037;-65
2022/07/22 00:45:18;;;;;;;13.80;6.88;;;;;;;23.04;97.17;100939.19;5019351;28;20125;-64
2022/07/22 00:47:47;;;;;;;15.60;7.40;;;;;;;23.10;97.35;100941.00;5011061;28;20061;-65
2022/07/22 00:50:16;;;;;;;17.27;7.22;;;;;;;23.18;96.77;100945.09;5008612;28;20033;-65
2022/07/22 00:52:45;;;;;;;18.63;7.72;;;;;;;23.21;96.70;100940.69;5010042;28;20101;-64
2022/07/22 00:55:14;;;;;;;15.95;7.30;;;;;;;23.21;96.50;100933.22;5009610;28;20070;-65
2022/07/22 00:57:40;;;;;;;15.02;7.25;;;;;;;23.23;96.71;100943.78;5009522;28;20054;-65
2022/07/22 01:00:10;;;;;;;19.35;8.27;;;;;;;23.22;96.50;100945.78;5011162;28;20474;-65
2022/07/22 01:02:38;;;;;;;18.40;7.57;;;;;;;23.21;96.96;100940.69;5010068;28;20045;-65
2022/07/22 01:05:09;;;;;;;19.33;8.27;;;;;;;23.20;96.92;100936.41;5011445;28;20474;-65
2022/07/22 01:07:41;;;;;;;18.92;8.52;;;;;;;23.21;97.03;100951.69;5009061;28;20048;-65
2022/07/22 01:10:07;;;;;;;17.73;7.50;;;;;;;23.15;97.14;100956.94;5011451;28;20029;-65
2022/07/22 01:12:38;;;;;;;14.43;6.80;;;;;;;23.16;96.61;100954.97;5010596;28;20056;-64
2022/07/22 01:15:06;;;;;;;15.75;6.80;;;;;;;23.09;96.33;100961.41;5011053;28;20120;-64
2022/07/22 01:17:32;;;;;;;17.85;6.75;;;;;;;23.06;95.94;100951.31;5006424;28;20084;-64
2022/07/22 01:20:06;;;;;;;15.02;7.22;;;;;;;23.06;94.90;100965.03;5018220;28;20494;-64
2022/07/22 01:22:32;;;;;;;15.20;6.57;;;;;;;22.81;95.89;100973.16;5025621;28;20045;-64
2022/07/22 01:25:01;;;;;;;13.35;5.93;;;;;;;22.84;95.87;100966.03;5009341;28;20036;-64
2022/07/22 01:27:29;;;;;;;14.82;5.25;;;;;;;22.85;94.79;100968.34;5014651;28;20038;-65
2022/07/22 01:30:00;;;;;;;11.77;5.07;;;;;;;22.80;94.83;100965.34;5009086;28;20117;-65
2022/07/22 01:32:35;;;;;;;9.43;4.63;;;;;;;22.73;94.86;100966.28;5015912;28;20053;-64
2022/07/22 01:35:04;;;;;;;7.88;3.90;;;;;;;22.74;93.88;100972.56;5006283;28;20061;-64
2022/07/22 01:37:36;;;;;;;6.28;3.13;;;;;;;22.67;94.19;100970.75;5008478;28;20032;-64
2022/07/22 01:40:03;;;;;;;6.88;2.50;;;;;;;22.57;94.54;100971.00;5009043;28;20169;-65
2022/07/22 01:42:31;;;;;;;6.05;2.83;;;;;;;22.50;94.41;100971.91;5022457;28;20026;-64
2022/07/22 01:44:56;;;;;;;4.13;2.20;;;;;;;22.46;93.94;100973.97;5010470;28;20113;-65
2022/07/22 01:47:22;;;;;;;3.80;2.38;;;;;;;22.45;93.72;100962.19;5006758;28;20133;-65
2022/07/22 01:49:53;;;;;;;4.40;2.20;;;;;;;22.44;93.85;100973.63;5007614;28;20069;-65
2022/07/22 01:52:24;;;;;;;2.72;1.95;;;;;;;22.39;93.90;100974.13;5000223;28;20168;-64
2022/07/22 01:54:49;;;;;;;6.35;1.90;;;;;;;22.41;93.31;100982.72;5002430;28;20030;-65
2022/07/22 01:57:17;;;;;;;2.42;1.40;;;;;;;22.29;93.58;100986.13;5008115;28;20303;-64
2022/07/22 01:59:47;;;;;;;2.45;1.30;;;;;;;22.19;93.88;101006.34;5007956;28;20030;-65
2022/07/22 02:02:15;;;;;;;3.53;1.33;;;;;;;22.20;93.29;100985.94;4989645;28;20033;-64
2022/07/22 02:04:42;;;;;;;3.60;1.10;;;;;;;22.11;92.85;101002.19;5010426;28;20034;-64
2022/07/22 02:07:09;;;;;;;2.50;1.00;;;;;;;22.11;92.57;101002.19;4992917;28;20516;-64
2022/07/22 02:09:37;;;;;;;1.73;0.98;;;;;;;22.07;91.27;101001.50;5007811;28;20053;-64
2022/07/22 02:12:05;;;;;;;3.75;1.30;;;;;;;21.96;90.91;101009.19;5008851;28;20021;-64
2022/07/22 02:14:44;;;;;;;7.68;1.30;;;;;;;21.81;90.99;101005.19;5024573;28;20057;-64
2022/07/22 02:17:20;;;;;;;2.08;1.20;;;;;;;21.78;90.74;101005.97;5010529;28;20084;-64
2022/07/22 02:19:48;;;;;;;4.75;0.93;;;;;;;21.68;90.45;101001.50;5007782;28;20557;-64
2022/07/22 02:22:15;;;;;;;4.13;1.55;;;;;;;21.70;90.37;101015.56;4999685;28;20038;-64
2022/07/22 02:24:40;;;;;;;5.40;1.70;;;;;;;21.68;90.14;101020.69;5009987;28;20026;-64
2022/07/22 02:27:11;;;;;;;2.83;1.10;;;;;;;21.49;89.72;101014.00;5021486;28;20022;-64
2022/07/22 02:29:37;;;;;;;2.20;1.25;;;;;;;21.48;90.43;101015.19;5024467;28;20064;-64
2022/07/22 02:32:07;;;;;;;3.67;1.85;;;;;;;21.32;90.10;101018.63;5009820;28;20054;-64
2022/07/22 02:34:33;;;;;;;4.05;1.23;;;;;;;21.32;90.10;101017.84;5009239;28;20421;-64
2022/07/22 02:36:59;;;;;;;3.35;1.90;;;;;;;21.37;90.09;101025.56;5008849;28;20124;-64
2022/07/22 02:39:27;;;;;;;3.47;1.80;;;;;;;21.14;90.96;101023.63;4992810;28;20042;-65
2022/07/22 02:41:55;;;;;;;5.13;1.55;;;;;;;21.21;91.07;101028.22;5010839;28;20032;-64
2022/07/22 02:44:23;;;;;;;5.47;1.75;;;;;;;21.22;90.88;101027.00;5008773;28;20030;-64
2022/07/22 02:46:51;;;;;;;2.97;1.67;;;;;;;21.22;90.83;101035.22;5009577;28;20030;-65
2022/07/22 02:49:29;;;;;;;2.58;1.42;;;;;;;21.17;90.93;101024.75;5008937;28;20034;-65
2022/07/22 02:51:56;;;;;;;6.82;1.88;;;;;;;21.12;91.84;101022.47;5021412;28;20041;-65
2022/07/22 02:54:22;;;;;;;4.78;1.88;;;;;;;21.18;91.41;101029.81;5010017;28;20014;-65
2022/07/22 02:56:48;;;;;;;3.35;1.83;;;;;;;21.08;91.63;101036.25;5009287;28;20069;-64
2022/07/22 02:59:14;;;;;;;5.40;2.00;;;;;;;20.91;91.99;101034.53;5006591;28;20488;-64
2022/07/22 03:01:52;;;;;;;5.97;1.77;;;;;;;21.03;91.74;101034.00;5006604;28;20029;-63
2022/07/22 03:04:20;;;;;;;2.28;1.63;;;;;;;21.07;91.35;101039.41;5013770;28;20041;-64
2022/07/22 03:06:46;;;;;;;4.80;1.48;;;;;;;21.17;90.44;101039.25;5012559;28;20391;-64
2022/07/22 03:09:19;;;;;;;4.57;1.67;;;;;;;21.18;89.67;101037.25;5010782;28;20026;-64
2022/07/22 03:11:48;;;;;;;5.03;1.77;;;;;;;21.13;89.91;101040.47;5025280;28;20022;-65
2022/07/22 03:14:18;;;;;;;3.28;1.70;;;;;;;21.14;89.05;101042.78;5025274;28;20030;-64
2022/07/22 03:16:48;;;;;;;5.30;1.90;;;;;;;21.11;89.43;101048.34;5007206;28;20038;-64
2022/07/22 03:19:18;;;;;;;3.17;1.77;;;;;;;21.06;90.04;101055.06;5009795;28;20379;-64
2022/07/22 03:21:53;;;;;;;5.65;2.08;;;;;;;21.13;89.58;101054.97;5028201;28;20576;-65
2022/07/22 03:24:21;;;;;;;3.10;1.30;;;;;;;21.10;89.66;101055.78;4994930;28;20405;-65
2022/07/22 03:26:49;;;;;;;3.13;1.50;;;;;;;21.11;89.94;101062.81;5018114;28;20037;-65
2022/07/22 03:29:16;;;;;;;3.50;1.15;;;;;;;21.09;89.43;101051.50;5010827;28;20157;-64
2022/07/22 03:31:42;;;;;;;5.28;1.55;;;;;;;21.09;89.46;101048.75;5011979;28;20436;-65
2022/07/22 03:34:11;;;;;;;1.80;1.00;;;;;;;21.07;89.11;101051.13;5011425;28;20030;-65
2022/07/22 03:36:46;;;;;;;1.83;1.13;;;;;;;21.05;89.64;101055.47;5011843;28;20044;-65
2022/07/22 03:39:11;;;;;;;3.60;0.90;;;;;;;21.06;89.00;101054.31;5011820;28;20032;-65
2022/07/22 03:41:39;;;;;;;8.32;1.48;;;;;;;21.03;88.96;101055.91;5011788;28;20037;-65
2022/07/22 03:44:05;;;;;;;3.13;0.90;;;;;;;21.02;88.95;101065.28;5010776;28;20030;-65
2022/07/22 03:46:31;;;;;;;6.75;1.65;;;;;;;20.95;89.31;101054.44;5011900;28;20109;-64
2022/07/22 03:49:03;;;;;;;3.83;0.98;;;;;;;20.98;89.44;101058.31;5025545;23;20038;-68
2022/07/22 03:51:31;;;;;;;3.05;1.02;;;;;;;20.94;89.65;101063.06;4981843;28;20564;-68
2022/07/22 03:54:01;;;;;;;4.75;1.10;;;;;;;21.01;89.00;101060.25;4999273;28;20101;-68
2022/07/22 03:56:30;;;;;;;1.30;0.88;;;;;;;20.99;88.88;101062.59;4990311;28;20029;-68
2022/07/22 03:58:58;;;;;;;6.55;1.35;;;;;;;20.99;88.99;101065.31;4990227;28;20040;-68
2022/07/22 04:01:24;;;;;;;3.47;1.00;;;;;;;20.93;88.68;101051.34;5005639;28;20046;-68
2022/07/22 04:03:54;;;;;;;1.42;1.25;;;;;;;20.78;89.24;101058.22;4988331;28;20034;-68
2022/07/22 04:06:25;;;;;;;4.80;0.90;;;;;;;20.87;89.27;101061.19;4978282;28;20513;-68
2022/07/22 04:08:58;;;;;;;4.90;0.73;;;;;;;20.90;88.79;101057.66;4977832;28;20080;-68
2022/07/22 04:11:28;;;;;;;1.13;0.82;;;;;;;20.81;88.95;101062.84;4988844;28;20030;-67
2022/07/22 04:13:56;;;;;;;3.25;0.80;;;;;;;20.83;88.83;101051.50;4991907;28;20024;-68
2022/07/22 04:16:29;;;;;;;3.28;0.70;;;;;;;20.84;89.07;101064.78;4990020;28;20029;-68
2022/07/22 04:19:06;;;;;;;1.15;0.77;;;;;;;20.87;88.83;101061.19;4993157;28;20034;-68
2022/07/22 04:21:58;;;;;;;3.65;0.88;;;;;;;20.89;89.08;101058.81;5003889;28;20402;-68
2022/07/22 04:24:27;;;;;;;1.40;0.50;;;;;;;20.91;88.99;101066.63;4999389;28;20033;-67
2022/07/22 04:26:58;;;;;;;1.88;0.88;;;;;;;20.98;88.04;101063.78;4987854;28;20041;-68
2022/07/22 04:29:33;;;;;;;2.97;0.73;;;;;;;20.98;88.03;101063.78;4992769;28;20173;-68
2022/07/22 04:31:58;;;;;;;1.10;0.60;;;;;;;20.98;87.93;101066.53;4983561;28;20117;-68
2022/07/22 04:34:24;;;;;;;1.77;0.80;;;;;;;21.00;88.37;101072.38;4978845;28;20149;-68
2022/07/22 04:36:53;;;;;;;3.03;1.20;;;;;;;20.97;87.94;101073.97;4978955;28;20045;-69
2022/07/22 04:39:28;;;;;;;1.65;0.80;;;;;;;20.93;88.41;101075.19;4984333;28;20045;-68
2022/07/22 04:42:03;;;;;;;4.82;0.80;;;;;;;20.92;87.68;101071.72;4986133;28;20034;-68
2022/07/22 04:44:32;;;;;;;1.00;0.70;;;;;;;20.93;87.55;101086.94;4989931;28;20042;-68
2022/07/22 04:47:00;;;;;;;1.50;1.20;;;;;;;20.88;87.34;101081.16;4976724;28;20113;-68
2022/07/22 04:49:28;;;;;;;3.63;0.75;;;;;;;20.85;87.86;101073.78;4986119;28;20564;-68
2022/07/22 04:52:03;;;;;;;1.57;0.70;;;;;;;20.88;87.32;101076.47;4983068;28;20069;-67
2022/07/22 04:54:41;;;;;;;3.88;0.98;;;;;;;20.91;87.83;101080.31;4977899;28;20631;-68
2022/07/22 04:57:09;;;;;;;2.88;1.02;;;;;;;20.87;88.29;101088.59;4998472;28;20038;-68
2022/07/22 04:59:39;;;;;;;1.08;0.88;;;;;;;20.88;88.53;101075.69;4987361;28;20426;-67
2022/07/22 05:02:07;;;;;;;6.53;0.88;;;;;;;20.91;88.58;101081.09;4985791;28;20038;-67
2022/07/22 05:04:34;;;;;;;2.00;0.90;;;;;;;20.92;88.92;101090.88;4978090;28;20093;-67
2022/07/22 05:07:03;;;;;;;2.00;1.00;;;;;;;20.90;88.99;101090.50;5005546;28;20076;-67
2022/07/22 05:09:28;;;;;;;1.83;0.90;;;;;;;20.93;89.10;101086.94;4979524;28;20081;-67
2022/07/22 05:11:54;;;;;;;2.80;0.93;;;;;;;20.85;89.50;101088.22;4980620;28;20044;-67
2022/07/22 05:14:29;;;;;;;1.33;0.85;;;;;;;20.84;89.95;101083.94;4990204;28;20389;-67
2022/07/22 05:16:58;;;;;;;1.50;0.90;;;;;;;20.87;90.09;101085.84;4989959;28;20113;-67
2022/07/22 05:19:26;;;;;;;1.70;0.85;;;;;;;20.79;90.44;101083.66;4991729;28;20054;-67
2022/07/22 05:21:57;;;;;;;0.82;0.70;;;;;;;20.74;91.14;101082.13;4991715;28;20125;-67
2022/07/22 05:24:22;;;;;;;3.50;0.80;;;;;;;20.80;90.75;101091.44;5000216;28;20565;-67
2022/07/22 05:26:48;;;;;;;5.18;1.50;;;;;;;20.80;91.17;101087.91;4988364;28;20038;-67
2022/07/22 05:29:16;;;;;;;3.25;0.85;;;;;;;20.82;91.60;101086.31;4989721;28;20413;-68
2022/07/22 05:31:41;;;;;;;3.53;0.68;;;;;;;20.85;91.22;101095.69;4991551;28;20080;-67
2022/07/22 05:34:07;;;;;;;1.38;0.68;;;;;;;20.89;91.18;101094.44;4987896;28;20034;-68
2022/07/22 05:36:38;;;;;;;3.17;0.80;;;;;;;20.91;91.05;101094.78;4981981;28;20478;-68
2022/07/22 05:39:05;;;;;;;2.60;1.10;;;;;;;20.90;91.04;101100.69;4987286;28;20731;-67
2022/07/22 05:41:33;;;;;;;4.57;0.80;;;;;;;20.86;91.85;101095.25;4972521;28;20022;-67
2022/07/22 05:44:01;;;;;;;1.90;1.05;;;;;;;20.94;90.95;101101.41;4993301;28;20510;-68
2022/07/22 05:46:32;;;;;;;0.85;0.63;;;;;;;20.93;90.93;101089.69;4976114;28;20125;-67
2022/07/22 05:48:58;;;;;;;1.50;0.75;;;;;;;20.91;91.61;101097.53;4980906;28;20133;-67
2022/07/22 05:51:31;;;;;;;2.70;1.00;;;;;;;20.88;91.38;101101.09;4989663;28;20030;-67
2022/07/22 05:53:57;;;;;;;1.33;1.05;;;;;;;20.91;91.72;101110.44;5000868;28;20030;-67
2022/07/22 05:56:30;;;;;;;2.53;0.85;;;;;;;20.85;91.50;101103.91;4983379;28;20029;-67
2022/07/22 05:58:58;;;;;;;1.80;0.95;;;;;;;20.82;91.83;101105.50;5000187;28;20037;-67
2022/07/22 06:01:25;;;;;;;3.85;0.90;;;;;;;20.79;92.08;101105.56;4981907;28;20386;-67
2022/07/22 06:03:52;;;;;;;2.83;1.10;;;;;;;20.76;92.09;101106.38;4988851;28;20061;-67
2022/07/22 06:06:18;;;;;;;2.58;0.98;;;;;;;20.76;92.31;101109.88;4974586;28;20022;-67
2022/07/22 06:08:45;;;;;;;5.78;1.13;;;;;;;20.78;91.58;101110.25;4975653;28;20025;-67
2022/07/22 06:11:11;;;;;;;3.50;1.05;;;;;;;20.68;92.48;101111.16;4978728;28;20091;-67
2022/07/22 06:13:42;;;;;;;5.97;1.20;;;;;;;20.69;92.83;101112.72;4984880;28;20394;-67
2022/07/22 06:16:07;;;;;;;1.90;1.10;;;;;;;20.72;91.80;101106.41;4989357;28;20494;-67
2022/07/22 06:18:35;;;;;;;1.92;1.10;;;;;;;20.71;92.12;101107.63;4978228;28;20030;-67
2022/07/22 06:21:01;;;;;;;5.88;1.27;;;;;;;20.73;91.31;101097.00;5003652;28;20030;-67
2022/07/22 06:23:27;;;;;;;2.78;1.08;;;;;;;20.74;91.22;101098.56;4989650;28;20426;-67
2022/07/22 06:25:52;;;;;;;2.60;1.10;;;;;;;20.72;91.64;101100.94;4988579;28;20061;-67
2022/07/22 06:28:26;;;;;;;3.60;1.05;;;;;;;20.80;91.85;101105.13;4983219;28;20041;-67
2022/07/22 06:30:52;;;;;;;3.08;1.20;;;;;;;20.87;91.36;101102.28;4978619;28;20101;-67
2022/07/22 06:33:21;;;;;;;3.38;1.30;;;;;;;20.99;91.13;101109.94;4987565;28;20087;-67
2022/07/22 06:35:46;;;;;;;2.10;1.20;;;;;;;21.13;90.44;101108.97;4996073;28;20542;-67
2022/07/22 06:38:12;;;;;;;2.80;1.30;;;;;;;21.25;89.84;101105.66;4977928;28;20026;-67
2022/07/22 06:40:59;;;;;;;4.20;1.17;;;;;;;21.31;89.13;101109.47;5001485;28;20069;-67
2022/07/22 06:43:53;;;;;;;3.55;0.98;;;;;;;21.34;88.91;101116.84;4989140;28;20050;-67
2022/07/22 06:46:38;;;;;;;6.75;1.30;;;;;;;21.35;88.32;101123.91;5003085;28;20514;-67
2022/07/22 06:49:07;;;;;;;4.30;0.90;;;;;;;21.37;88.23;101114.06;4991948;28;20116;-67
2022/07/22 06:51:34;;;;;;;2.90;1.00;;;;;;;21.39;88.46;101117.16;4992406;28;20117;-67
2022/07/22 06:54:04;;;;;;;4.35;1.20;;;;;;;21.44;88.25;101119.44;4977142;28;20030;-67
2022/07/22 06:56:32;;;;;;;4.95;2.10;;;;;;;21.56;87.88;101124.28;4998233;28;20564;-67
2022/07/22 06:58:58;;;;;;;4.53;1.23;;;;;;;21.61;87.85;101123.06;4995615;28;20088;-67
2022/07/22 07:01:26;;;;;;;5.72;1.90;;;;;;;21.76;87.82;101123.56;4996690;28;20042;-67
2022/07/22 07:03:54;;;;;;;1.90;0.95;;;;;;;21.92;87.17;101118.22;4996693;28;20041;-67
2022/07/22 07:06:24;;;;;;;3.33;1.48;;;;;;;22.08;87.35;101115.56;5010331;28;20103;-67
2022/07/22 07:09:10;;;;;;;7.05;1.42;;;;;;;22.35;86.39;101121.69;5007580;28;20037;-67
2022/07/22 07:11:42;;;;;;;3.53;1.52;;;;;;;22.52;86.45;101122.50;4984867;28;20089;-67
2022/07/22 07:14:17;;;;;;;4.88;1.40;;;;;;;22.64;85.08;101121.88;4994347;28;20034;-67
2022/07/22 07:16:43;;;;;;;6.05;1.20;;;;;;;22.67;82.87;101129.25;4976888;28;20047;-67
2022/07/22 07:19:12;;;;;;;2.40;1.35;;;;;;;22.56;82.39;101126.72;4975952;28;20324;-67
2022/07/22 07:21:43;;;;;;;5.57;1.67;;;;;;;22.38;81.91;101132.59;4976919;28;20042;-67
2022/07/22 07:24:08;;;;;;;5.95;1.45;;;;;;;22.26;82.33;101132.47;4989924;28;20029;-67
2022/07/22 07:26:37;;;;;;;2.10;1.13;;;;;;;22.12;82.73;101128.03;4995549;28;20364;-67
2022/07/22 07:29:10;;;;;;;5.20;1.60;;;;;;;22.07;82.87;101127.72;4994796;28;20409;-68
2022/07/22 07:31:42;;;;;;;1.23;1.05;;;;;;;22.11;83.37;101129.22;4992255;28;20421;-68
2022/07/22 07:34:19;;;;;;;7.35;1.50;;;;;;;22.15;84.08;101134.63;4996001;28;20505;-68
2022/07/22 07:36:50;;;;;;;4.75;1.27;;;;;;;22.33;84.53;101130.34;4995918;28;20045;-68
2022/07/22 07:39:16;;;;;;;3.58;1.27;;;;;;;22.41;83.60;101142.72;4988727;28;20030;-68
2022/07/22 07:41:45;;;;;;;2.75;1.08;;;;;;;22.50;82.22;101139.41;5004193;28;20037;-68
2022/07/22 07:44:20;;;;;;;6.40;2.35;;;;;;;22.39;81.77;101134.16;4995387;28;20030;-68
2022/07/22 07:46:45;;;;;;;6.50;1.42;;;;;;;22.35;81.14;101138.16;5010602;28;20021;-67
2022/07/22 07:49:12;;;;;;;6.05;1.75;;;;;;;22.30;79.65;101136.66;4993320;28;20401;-67
2022/07/22 07:51:38;;;;;;;3.15;1.20;;;;;;;22.21;79.73;101144.69;4987817;28;20033;-68
2022/07/22 07:54:06;;;;;;;5.13;1.92;;;;;;;22.14;79.05;101136.59;5011550;28;20038;-67
2022/07/22 07:56:35;;;;;;;2.60;1.13;;;;;;;22.06;79.92;101132.44;5010472;28;20506;-67
2022/07/22 07:59:02;;;;;;;1.67;1.10;;;;;;;22.03;80.08;101136.03;4990478;28;20032;-67
2022/07/22 08:01:36;;;;;;;2.58;1.00;;;;;;;22.01;80.51;101135.66;4984937;28;20496;-67
2022/07/22 08:04:07;;;;;;;3.03;1.00;;;;;;;22.04;80.35;101150.53;5012799;28;20045;-67
2022/07/22 08:06:40;;;;;;;3.35;1.35;;;;;;;22.03;80.70;101157.19;4979314;28;20033;-67
2022/07/22 08:09:06;;;;;;;4.47;1.30;;;;;;;22.05;80.99;101152.06;4977906;28;20509;-67
2022/07/22 08:11:35;;;;;;;2.20;1.20;;;;;;;22.02;80.39;101158.41;4992808;28;20091;-67
2022/07/22 08:14:23;;;;;;;4.68;1.90;;;;;;;21.96;79.63;101160.84;5005642;28;20052;-67
2022/07/22 08:17:23;;;;;;;4.40;1.50;;;;;;;21.87;79.69;101168.88;4991647;28;20449;-67
2022/07/22 08:19:52;;;;;;;9.95;1.38;;;;;;;21.84;80.29;101171.66;4992340;28;20033;-67
2022/07/22 08:22:24;;;;;;;2.53;1.40;;;;;;;21.82;80.57;101177.56;4990215;28;20034;-67
2022/07/22 08:24:54;;;;;;;4.85;1.20;;;;;;;21.83;80.29;101172.84;4994354;28;20418;-67
2022/07/22 08:27:26;;;;;;;4.40;1.48;;;;;;;21.82;80.12;101176.78;5011749;28;20025;-67
2022/07/22 08:29:55;;;;;;;7.53;1.33;;;;;;;21.89;79.72;101179.41;4993169;28;20029;-67
2022/07/22 08:32:25;;;;;;;3.67;1.20;;;;;;;21.88;79.67;101169.63;4988320;28;20025;-67
2022/07/22 08:34:53;;;;;;;2.78;1.33;;;;;;;21.96;79.38;101171.81;5000141;28;20041;-67
2022/07/22 08:37:19;;;;;;;5.82;1.50;;;;;;;21.99;78.90;101181.19;4976072;28;20026;-67
2022/07/22 08:39:45;;;;;;;2.75;1.63;;;;;;;22.01;78.67;101187.03;4984676;28;20037;-67
2022/07/22 08:42:11;;;;;;;3.45;1.10;;;;;;;21.95;78.42;101173.00;4981031;28;20580;-67
2022/07/22 08:44:36;;;;;;;2.67;1.13;;;;;;;21.96;78.33;101179.28;4979824;28;20376;-67
2022/07/22 08:47:12;;;;;;;1.45;0.90;;;;;;;21.94;77.84;101185.19;4999155;28;20111;-67
2022/07/22 08:49:56;;;;;;;3.95;1.00;;;;;;;21.94;77.53;101189.91;5001067;28;20052;-67
2022/07/22 08:52:41;;;;;;;5.10;1.05;;;;;;;21.98;77.28;101185.91;4987863;28;20113;-67
2022/07/22 08:55:08;;;;;;;2.47;1.10;;;;;;;22.04;77.53;101180.69;4983880;28;20044;-67
2022/07/22 08:57:42;;;;;;;4.53;1.08;;;;;;;22.10;77.09;101188.03;4980522;28;20617;-67
2022/07/22 09:00:11;;;;;;;2.55;1.10;;;;;;;22.20;77.02;101189.03;5003587;28;20533;-67
2022/07/22 09:02:40;;;;;;;2.40;0.98;;;;;;;22.34;76.30;101194.25;4982251;28;20034;-67
2022/07/22 09:05:10;;;;;;;5.25;0.98;;;;;;;22.40;75.08;101184.31;4983891;28;20045;-67
2022/07/22 09:07:38;;;;;;;1.95;1.17;;;;;;;22.41;74.91;101188.63;4990047;28;20048;-67
2022/07/22 09:10:16;;;;;;;1.75;0.77;;;;;;;22.40;73.28;101192.56;4997231;28;20037;-68
2022/07/22 09:13:13;;;;;;;2.05;0.98;;;;;;;22.36;71.96;101189.09;4981950;28;20038;-67
2022/07/22 09:15:55;;;;;;;5.05;0.90;;;;;;;22.35;71.91;101188.34;4974445;28;20444;-68
2022/07/22 09:18:56;;;;;;;3.00;1.00;;;;;;;22.34;72.61;101194.25;4999330;28;20057;-68
2022/07/22 09:21:49;;;;;;;1.33;0.70;;;;;;;22.43;72.71;101191.72;5002875;28;20038;-68
2022/07/22 09:24:29;;;;;;;2.90;1.10;;;;;;;22.57;70.85;101187.97;4978222;28;20056;-68
2022/07/22 09:27:00;;;;;;;1.67;0.90;;;;;;;22.59;70.71;101189.06;4980858;28;20038;-68
2022/07/22 09:29:53;;;;;;;4.25;0.98;;;;;;;22.68;69.92;101197.53;4980059;28;20554;-68
2022/07/22 09:32:21;;;;;;;2.00;0.82;;;;;;;22.71;69.74;101196.66;4982564;28;20069;-68
2022/07/22 09:35:02;;;;;;;6.35;1.00;;;;;;;22.85;69.10;101193.63;5001358;28;20482;-68
2022/07/22 09:37:31;;;;;;;2.55;1.02;;;;;;;23.00;68.31;101189.38;4978728;28;20041;-68
2022/07/22 09:40:15;;;;;;;2.25;0.93;;;;;;;23.13;67.45;101192.25;4979437;28;20494;-68
2022/07/22 09:42:46;;;;;;;1.77;0.90;;;;;;;23.24;67.65;101193.53;4979111;28;20733;-68
2022/07/22 09:45:18;;;;;;;7.90;1.10;;;;;;;23.19;67.39;101194.03;4982913;28;20412;-67
2022/07/22 09:48:07;;;;;;;3.38;1.33;;;;;;;23.23;65.57;101202.19;4995510;28;20038;-67
2022/07/22 09:50:56;;;;;;;4.80;1.10;;;;;;;23.15;65.80;101206.34;4983661;23;20591;-62
2022/07/22 09:58:51;;;;;;;8.30;0.90;;;;;;;23.22;65.86;101206.94;4982509;28;20066;-63
2022/07/22 10:01:43;;;;;;;4.28;0.70;;;;;;;23.28;65.02;101205.25;5004974;28;20038;-63
2022/07/22 10:04:10;;;;;;;1.13;0.73;;;;;;;23.54;64.87;101206.22;4965714;28;20034;-63
2022/07/22 10:06:41;;;;;;;1.90;0.98;;;;;;;23.83;63.78;101201.56;4986368;28;20397;-64
2022/07/22 10:09:13;;;;;;;3.15;0.73;;;;;;;24.12;62.24;101207.13;4983720;28;20440;-66
2022/07/22 10:11:44;;;;;;;3.67;0.70;;;;;;;24.20;59.61;101213.25;4995526;28;20030;-65
2022/07/22 10:14:16;;;;;;;5.00;1.05;;;;;;;24.12;60.28;101213.41;4992414;28;20121;-66
2022/07/22 10:16:43;;;;;;;2.60;0.98;;;;;;;24.09;60.43;101208.00;4987903;28;20065;-66
2022/07/22 10:19:10;;;;;;;3.88;1.15;;;;;;;23.98;61.57;101208.25;4976502;28;20051;-66
2022/07/22 10:21:41;;;;;;;1.52;0.75;;;;;;;23.91;61.75;101216.69;4984194;28;20030;-65
2022/07/22 10:24:11;;;;;;;1.20;0.73;;;;;;;23.90;61.14;101214.38;4972050;28;20420;-65
2022/07/22 10:26:57;;;;;;;1.30;0.60;;;;;;;23.93;60.99;101213.50;4982268;28;20525;-65
2022/07/22 10:29:44;;;;;;;3.50;0.80;;;;;;;23.88;61.80;101211.28;4980079;28;20985;-65
2022/07/22 10:32:32;;;;;;;1.90;0.60;;;;;;;23.94;61.74;101212.31;4967807;28;20049;-66
2022/07/22 10:35:03;;;;;;;5.47;0.80;;;;;;;24.07;61.36;101204.91;4977503;28;20025;-65
2022/07/22 10:37:35;;;;;;;0.52;0.50;;;;;;;24.35;60.89;101214.41;4990509;28;20042;-65
2022/07/22 10:40:44;;;;;;;1.27;0.50;;;;;;;24.69;58.76;101220.13;4984994;28;20481;-65
2022/07/22 10:43:12;;;;;;;0.77;0.50;;;;;;;24.78;57.99;101221.06;4991755;28;20050;-65
2022/07/22 10:45:53;;;;;;;1.15;0.60;;;;;;;24.93;57.30;101215.91;4982698;28;20117;-65
2022/07/22 10:48:21;;;;;;;0.75;0.50;;;;;;;25.07;56.18;101220.22;4984899;28;20038;-65
2022/07/22 10:50:51;;;;;;;1.33;0.60;;;;;;;25.04;54.94;101221.88;4981101;28;20057;-66
2022/07/22 10:53:21;;;;;;;1.90;0.50;;;;;;;24.98;54.66;101221.66;4998310;28;20031;-66
2022/07/22 10:56:03;;;;;;;4.78;0.70;;;;;;;24.89;54.70;101220.75;4990633;28;20133;-65
2022/07/22 10:58:34;;;;;;;4.10;0.60;;;;;;;24.77;55.36;101216.75;4991539;28;20026;-66
2022/07/22 11:01:07;;;;;;;1.75;0.50;;;;;;;24.71;54.75;101217.69;4983156;28;20089;-65
2022/07/22 11:03:37;;;;;;;0.57;0.52;;;;;;;24.61;55.52;101221.53;4981342;28;20061;-66
2022/07/22 11:06:16;;;;;;;4.10;0.60;;;;;;;24.65;55.58;101222.19;4981000;28;20041;-66
2022/07/22 11:08:52;;;;;;;9.40;1.15;;;;;;;24.73;55.46;101218.06;4976395;28;20110;-65
2022/07/22 11:11:32;;;;;;;1.65;0.40;;;;;;;24.79;55.40;101225.38;4976095;28;20034;-65
2022/07/22 11:14:06;;;;;;;3.42;0.80;;;;;;;24.91;53.86;101221.09;4974301;28;20038;-65
2022/07/22 11:16:34;;;;;;;3.70;1.05;;;;;;;24.94;54.38;101215.47;4983650;28;20103;-65
2022/07/22 11:19:02;;;;;;;0.68;0.55;;;;;;;24.99;54.17;101219.63;4980581;28;20420;-65
2022/07/22 11:21:35;;;;;;;1.20;0.65;;;;;;;24.96;53.63;101220.53;4981262;28;20038;-65
2022/07/22 11:24:05;;;;;;;4.55;0.75;;;;;;;25.00;53.22;101216.47;4973979;28;20030;-65
2022/07/22 11:26:44;;;;;;;4.53;1.00;;;;;;;25.05;53.07;101217.88;4977907;28;20049;-65
2022/07/22 11:29:19;;;;;;;0.77;0.70;;;;;;;25.19;52.83;101214.69;4979364;28;20045;-65
2022/07/22 11:31:50;;;;;;;0.70;0.50;;;;;;;25.39;52.33;101220.00;4980693;28;20065;-65
2022/07/22 11:34:16;;;;;;;;;;;;;;;25.45;51.73;101218.25;4977057;28;20449;-65
2022/07/22 11:36:44;;;;;;;1.90;0.80;;;;;;;25.54;52.35;101210.09;4974792;28;19917;-65
2022/07/22 11:39:17;;;;;;;3.65;0.55;;;;;;;25.52;51.89;101213.28;4973407;28;20050;-65
2022/07/22 11:41:45;;;;;;;2.92;0.77;;;;;;;25.42;52.20;101221.91;4996062;28;20061;-66
2022/07/22 11:44:17;;;;;;;1.15;0.77;;;;;;;25.33;52.12;101216.25;4986891;28;20072;-65
2022/07/22 11:46:42;;;;;;;0.55;0.40;;;;;;;25.26;52.90;101224.75;4979260;28;20053;-65